createdAt,value
2019-05-21T00:02:15.577Z,78.67
2019-05-21T00:04:44.448Z,68.33
2019-05-21T00:07:13.271Z,69.00
2019-05-21T00:09:42.156Z,63.27
2019-05-21T00:12:10.985Z,57.17
2019-05-21T00:14:39.824Z,54.27
2019-05-21T00:17:09.132Z,68.60
2019-05-21T00:19:38.024Z,60.70
2019-05-21T00:22:06.911Z,56.17
2019-05-21T00:24:40.641Z,58.33
2019-05-21T00:27:09.573Z,50.63
2019-05-21T00:30:14.744Z,68.37
2019-05-21T00:33:20.064Z,55.17
2019-05-21T00:36:27.373Z,54.57
2019-05-21T00:39:32.486Z,53.70
2019-05-21T00:42:01.314Z,50.83
2019-05-21T00:44:39.608Z,59.07
2019-05-21T00:47:10.324Z,58.03
2019-05-21T00:49:39.288Z,58.23
2019-05-21T00:52:09.141Z,62.00
2019-05-21T00:54:39.568Z,60.17
2019-05-21T00:57:08.420Z,58.83
2019-05-21T00:59:37.242Z,62.37
2019-05-21T01:02:06.496Z,58.27
2019-05-21T01:04:35.393Z,84.10
2019-05-21T01:07:04.755Z,74.30
2019-05-21T01:09:33.644Z,74.80
2019-05-21T01:12:02.651Z,78.37
2019-05-21T01:14:31.645Z,74.10
2019-05-21T01:17:00.523Z,57.27
2019-05-21T01:19:29.347Z,52.30
2019-05-21T01:21:58.192Z,58.20
2019-05-21T01:24:27.073Z,61.37
2019-05-21T01:26:55.958Z,61.80
2019-05-21T01:29:25.063Z,70.40
2019-05-21T01:31:53.898Z,61.77
2019-05-21T01:34:22.803Z,73.90
2019-05-21T01:36:52.275Z,64.33
2019-05-21T01:39:21.217Z,54.17
2019-05-21T01:41:51.583Z,60.23
2019-05-21T01:44:20.452Z,69.57
2019-05-21T01:46:49.516Z,69.70
2019-05-21T01:49:19.137Z,55.37
2019-05-21T01:51:48.029Z,76.43
2019-05-21T01:54:16.834Z,87.40
2019-05-21T01:56:48.615Z,98.37
2019-05-21T01:59:17.426Z,89.23
2019-05-21T02:01:46.691Z,89.53
2019-05-21T02:04:16.394Z,87.93
2019-05-21T02:06:45.748Z,89.77
2019-05-21T02:09:14.661Z,92.97
2019-05-21T02:11:43.478Z,88.47
2019-05-21T02:14:12.567Z,100.63
2019-05-21T02:16:41.451Z,93.77
2019-05-21T02:19:10.427Z,144.00
2019-05-21T02:21:39.245Z,118.90
2019-05-21T02:24:08.215Z,125.40
2019-05-21T02:26:37.269Z,137.53
2019-05-21T02:29:06.491Z,137.20
2019-05-21T02:31:35.358Z,135.97
2019-05-21T02:34:04.423Z,124.57
2019-05-21T02:36:34.035Z,127.83
2019-05-21T02:39:05.329Z,160.30
2019-05-21T02:41:34.420Z,118.20
2019-05-21T02:44:03.246Z,114.87
2019-05-21T02:46:33.056Z,139.23
2019-05-21T02:49:01.842Z,143.87
2019-05-21T02:51:30.676Z,147.90
2019-05-21T02:53:59.519Z,127.70
2019-05-21T02:56:28.758Z,126.10
2019-05-21T02:58:57.913Z,131.27
2019-05-21T03:01:36.326Z,114.20
2019-05-21T03:04:05.388Z,118.07
2019-05-21T03:06:34.550Z,142.23
2019-05-21T03:09:05.341Z,103.27
2019-05-21T03:11:34.389Z,112.90
2019-05-21T03:14:03.277Z,126.63
2019-05-21T03:16:32.130Z,139.47
2019-05-21T03:19:01.027Z,124.97
2019-05-21T03:21:29.850Z,137.23
2019-05-21T03:23:59.168Z,138.50
2019-05-21T03:26:28.139Z,135.17
2019-05-21T03:28:56.953Z,141.60
2019-05-21T03:31:26.559Z,140.33
2019-05-21T03:33:55.794Z,115.40
2019-05-21T03:36:33.273Z,100.60
2019-05-21T03:41:31.232Z,117.00
2019-05-21T03:44:00.104Z,97.50
2019-05-21T03:46:29.249Z,87.07
2019-05-21T03:48:58.741Z,87.23
2019-05-21T03:51:27.990Z,78.23
2019-05-21T03:53:57.320Z,81.70
2019-05-21T03:59:01.312Z,82.93
2019-05-21T04:01:30.117Z,80.30
2019-05-21T04:03:59.050Z,92.83
2019-05-21T04:06:28.935Z,104.50
2019-05-21T04:08:58.323Z,110.20
2019-05-21T04:11:27.682Z,125.70
2019-05-21T04:13:56.621Z,117.50
2019-05-21T04:16:34.608Z,120.13
2019-05-21T04:19:07.066Z,134.27
2019-05-21T04:21:36.392Z,131.90
2019-05-21T04:24:08.759Z,138.00
2019-05-21T04:26:36.043Z,135.10
2019-05-21T04:29:05.759Z,137.37
2019-05-21T04:31:34.707Z,112.17
2019-05-21T04:34:03.548Z,84.00
2019-05-21T04:36:33.347Z,132.50
2019-05-21T04:39:02.209Z,101.77
2019-05-21T04:41:31.168Z,111.93
2019-05-21T04:44:00.506Z,105.03
2019-05-21T04:46:29.639Z,119.97
2019-05-21T04:48:58.473Z,124.70
2019-05-21T04:51:28.136Z,143.43
2019-05-21T04:53:56.997Z,106.10
2019-05-21T04:56:26.053Z,158.63
2019-05-21T05:01:29.914Z,160.57
2019-05-21T05:03:58.833Z,185.53
2019-05-21T05:06:27.934Z,167.83
2019-05-21T05:08:56.747Z,165.23
2019-05-21T05:11:25.623Z,210.33
2019-05-21T05:13:54.619Z,214.13
2019-05-21T05:16:25.715Z,205.73
2019-05-21T05:18:54.539Z,244.73
2019-05-21T05:21:23.485Z,226.33
2019-05-21T05:23:52.961Z,245.03
2019-05-21T05:26:22.925Z,233.70
2019-05-21T05:28:51.842Z,259.43
2019-05-21T05:33:55.430Z,248.43
2019-05-21T05:36:24.244Z,260.80
2019-05-21T05:38:53.155Z,238.43
2019-05-21T05:41:22.196Z,225.33
2019-05-21T05:43:51.192Z,237.67
2019-05-21T05:46:20.232Z,220.23
2019-05-21T05:49:01.461Z,235.23
2019-05-21T05:51:28.796Z,255.53
2019-05-21T05:53:58.237Z,219.23
2019-05-21T05:56:28.526Z,203.37
2019-05-21T05:59:08.785Z,174.53
2019-05-21T06:01:37.767Z,211.30
2019-05-21T06:04:06.697Z,205.23
2019-05-21T06:06:35.688Z,222.00
2019-05-21T06:11:41.635Z,201.63
2019-05-21T06:14:10.710Z,205.73
2019-05-21T06:16:39.655Z,214.80
2019-05-21T06:19:08.724Z,169.43
2019-05-21T06:21:38.884Z,160.80
2019-05-21T06:24:07.916Z,194.67
2019-05-21T06:26:36.783Z,197.33
2019-05-21T06:29:06.773Z,156.40
2019-05-21T06:31:35.601Z,143.27
2019-05-21T06:34:04.571Z,166.10
2019-05-21T06:36:33.727Z,129.43
2019-05-21T06:39:04.904Z,146.30
2019-05-21T06:41:34.027Z,135.97
2019-05-21T06:44:03.119Z,152.67
2019-05-21T06:46:32.056Z,122.07
2019-05-21T06:49:01.188Z,141.80
2019-05-21T06:51:30.098Z,140.80
2019-05-21T06:53:59.316Z,107.03
2019-05-21T06:56:31.559Z,107.83
2019-05-21T06:59:05.622Z,93.53
2019-05-21T07:01:34.668Z,105.93
2019-05-21T07:04:04.855Z,101.73
2019-05-21T07:06:33.800Z,95.20
2019-05-21T07:09:02.861Z,86.27
2019-05-21T07:11:32.807Z,116.53
2019-05-21T07:14:21.191Z,95.90
2019-05-21T07:16:52.771Z,102.43
2019-05-21T07:19:21.651Z,92.63
2019-05-21T07:21:50.640Z,113.80
2019-05-21T07:24:19.941Z,131.17
2019-05-21T07:26:48.938Z,116.77
2019-05-21T07:29:17.882Z,115.77
2019-05-21T07:31:49.740Z,135.03
2019-05-21T07:34:18.574Z,115.13
2019-05-21T07:36:47.427Z,123.43
2019-05-21T07:39:22.949Z,105.03
2019-05-21T07:41:51.918Z,110.17
2019-05-21T07:44:20.752Z,104.27
2019-05-21T07:46:51.741Z,122.23
2019-05-21T07:49:20.946Z,122.23
2019-05-21T07:51:50.215Z,120.33
2019-05-21T07:54:19.737Z,121.60
2019-05-21T07:56:48.669Z,116.73
2019-05-21T07:59:17.583Z,101.27
2019-05-21T08:01:47.135Z,84.80
2019-05-21T08:04:16.439Z,84.93
2019-05-21T08:06:46.181Z,90.83
2019-05-21T08:09:15.276Z,95.57
2019-05-21T08:11:47.124Z,92.37
2019-05-21T08:14:16.011Z,100.07
2019-05-21T08:16:45.007Z,103.17
2019-05-21T08:19:14.010Z,127.80
2019-05-21T08:21:42.823Z,106.07
2019-05-21T08:24:11.787Z,124.20
2019-05-21T08:26:43.167Z,120.87
2019-05-21T08:29:12.148Z,106.57
2019-05-21T08:31:41.065Z,84.70
2019-05-21T08:34:10.004Z,83.50
2019-05-21T08:36:38.920Z,70.07
2019-05-21T08:39:08.475Z,86.57
2019-05-21T08:44:12.639Z,102.93
2019-05-21T08:46:41.617Z,96.80
2019-05-21T08:49:10.535Z,93.43
2019-05-21T08:51:40.762Z,93.87
2019-05-21T08:54:09.766Z,82.57
2019-05-21T08:56:38.653Z,83.20
2019-05-21T08:59:08.675Z,71.30
2019-05-21T09:01:42.339Z,59.90
2019-05-21T09:04:11.365Z,65.27
2019-05-21T09:06:40.176Z,64.70
2019-05-21T09:09:09.204Z,60.70
2019-05-21T09:11:38.071Z,56.23
2019-05-21T09:14:06.976Z,51.67
2019-05-21T09:16:36.920Z,68.10
2019-05-21T09:19:05.977Z,52.67
2019-05-21T09:21:35.339Z,50.83
2019-05-21T09:24:04.419Z,69.57
2019-05-21T09:26:33.255Z,59.43
2019-05-21T09:29:02.880Z,47.73
2019-05-21T09:31:31.821Z,68.07
2019-05-21T09:34:00.701Z,64.97
2019-05-21T09:36:29.979Z,58.57
2019-05-21T09:38:58.812Z,59.63
2019-05-21T09:41:28.214Z,79.10
2019-05-21T09:43:57.299Z,67.10
2019-05-21T09:49:01.393Z,61.60
2019-05-21T09:51:30.516Z,66.20
2019-05-21T09:53:59.705Z,53.70
2019-05-21T09:56:35.210Z,58.07
2019-05-21T09:59:13.304Z,54.03
2019-05-21T10:01:48.008Z,71.57
2019-05-21T10:04:16.803Z,55.73
2019-05-21T10:06:45.765Z,63.17
2019-05-21T10:09:17.722Z,63.77
2019-05-21T10:11:46.617Z,69.50
2019-05-21T10:14:15.511Z,77.77
2019-05-21T10:16:45.323Z,64.10
2019-05-21T10:19:14.860Z,65.90
2019-05-21T10:21:43.756Z,64.27
2019-05-21T10:24:13.829Z,71.03
2019-05-21T10:26:42.982Z,82.03
2019-05-21T10:29:11.928Z,60.90
2019-05-21T10:31:41.208Z,67.20
2019-05-21T10:34:12.680Z,82.07
2019-05-21T10:36:40.815Z,82.57
2019-05-21T10:39:10.123Z,76.03
2019-05-21T10:41:38.958Z,64.03
2019-05-21T10:44:08.050Z,44.20
2019-05-21T10:46:37.073Z,49.10
2019-05-21T10:49:06.802Z,53.83
2019-05-21T10:51:35.839Z,56.50
2019-05-21T10:54:06.195Z,46.60
2019-05-21T10:56:47.468Z,47.55
2019-05-21T11:02:06.978Z,47.50
2019-05-21T11:04:43.702Z,47.10
2019-05-21T11:07:14.225Z,41.77
2019-05-21T11:10:02.617Z,39.80
2019-05-21T11:12:31.767Z,54.45
2019-05-21T11:15:00.737Z,56.93
2019-05-21T11:17:29.632Z,45.30
2019-05-21T11:19:58.468Z,50.30
2019-05-21T11:22:27.371Z,46.13
2019-05-21T11:24:56.206Z,42.57
2019-05-21T11:27:25.177Z,42.10
2019-05-21T11:29:54.053Z,53.23
2019-05-21T11:32:23.296Z,54.70
2019-05-21T11:34:52.269Z,59.30
2019-05-21T11:39:58.199Z,59.77
2019-05-21T11:42:27.170Z,59.80
2019-05-21T11:44:56.497Z,60.10
2019-05-21T11:47:25.528Z,55.40
2019-05-21T11:49:54.662Z,59.83
2019-05-21T11:52:23.555Z,63.93
2019-05-21T11:54:55.754Z,69.70
2019-05-21T11:57:23.064Z,62.83
2019-05-21T11:59:51.975Z,58.63
2019-05-21T12:02:21.216Z,70.10
2019-05-21T12:04:52.810Z,74.77
2019-05-21T12:07:21.714Z,70.47
2019-05-21T12:09:50.898Z,65.57
2019-05-21T12:12:19.906Z,70.97
2019-05-21T12:14:48.698Z,65.87
2019-05-21T12:17:17.544Z,69.43
2019-05-21T12:22:21.682Z,61.53
2019-05-21T12:27:27.365Z,57.40
2019-05-21T12:29:58.309Z,76.50
2019-05-21T12:32:27.104Z,66.00
2019-05-21T12:34:56.276Z,67.90
2019-05-21T12:37:25.128Z,51.23
2019-05-21T12:39:55.222Z,53.10
2019-05-21T12:42:24.166Z,55.40
2019-05-21T12:44:54.226Z,50.80
2019-05-21T12:47:23.512Z,54.37
2019-05-21T12:49:52.338Z,49.67
2019-05-21T12:52:21.685Z,52.43
2019-05-21T12:54:50.483Z,38.97
2019-05-21T12:57:19.419Z,53.07
2019-05-21T12:59:51.390Z,49.53
2019-05-21T13:02:20.288Z,55.47
2019-05-21T13:04:49.215Z,48.40
2019-05-21T13:07:22.426Z,52.53
2019-05-21T13:09:51.354Z,51.80
2019-05-21T13:12:20.288Z,57.70
2019-05-21T13:14:49.224Z,62.23
2019-05-21T13:17:18.853Z,53.40
2019-05-21T13:19:47.700Z,53.37
2019-05-21T13:22:16.532Z,56.33
2019-05-21T13:27:20.060Z,62.80
2019-05-21T13:29:48.916Z,66.20
2019-05-21T13:32:18.347Z,58.63
2019-05-21T13:34:47.580Z,67.30
2019-05-21T13:37:16.485Z,61.97
2019-05-21T13:39:50.178Z,68.83
2019-05-21T13:42:16.416Z,70.90
2019-05-21T13:44:45.217Z,72.03
2019-05-21T13:47:15.019Z,75.67
2019-05-21T13:49:43.882Z,63.33
2019-05-21T13:52:12.873Z,57.77
2019-05-21T13:54:41.710Z,53.33
2019-05-21T13:57:10.518Z,58.30
2019-05-21T13:59:39.786Z,54.80
2019-05-21T14:02:11.155Z,64.77
2019-05-21T14:04:42.230Z,57.17
2019-05-21T14:07:11.100Z,51.17
2019-05-21T14:09:40.314Z,53.13
2019-05-21T14:12:09.545Z,49.03
2019-05-21T14:14:38.641Z,60.57
2019-05-21T14:17:08.410Z,69.13
2019-05-21T14:19:37.289Z,52.97
2019-05-21T14:22:06.556Z,66.00
2019-05-21T14:24:38.545Z,60.17
2019-05-21T14:27:07.748Z,67.67
2019-05-21T14:29:36.685Z,68.27
2019-05-21T14:32:10.404Z,63.73
2019-05-21T14:34:39.391Z,63.67
2019-05-21T14:37:08.733Z,54.97
2019-05-21T14:39:40.177Z,58.50
2019-05-21T14:42:09.082Z,50.50
2019-05-21T14:44:37.986Z,54.20
2019-05-21T14:47:07.008Z,53.53
2019-05-21T14:49:35.915Z,50.30
2019-05-21T14:52:05.543Z,50.13
2019-05-21T14:54:34.845Z,52.33
2019-05-21T14:57:05.884Z,46.63
2019-05-21T14:59:34.820Z,47.33
2019-05-21T15:02:22.962Z,42.67
2019-05-21T15:04:52.222Z,41.93
2019-05-21T15:07:22.457Z,41.30
2019-05-21T15:09:53.564Z,40.97
2019-05-21T15:12:22.213Z,44.90
2019-05-21T15:14:51.760Z,36.20
2019-05-21T15:17:22.584Z,37.83
2019-05-21T15:19:55.356Z,41.97
2019-05-21T15:22:24.722Z,38.60
2019-05-21T15:24:53.988Z,43.10
2019-05-21T15:27:23.380Z,36.30
2019-05-21T15:29:52.269Z,34.63
2019-05-21T15:32:22.583Z,47.23
2019-05-21T15:34:51.541Z,38.40
2019-05-21T15:37:20.554Z,39.27
2019-05-21T15:39:49.379Z,36.70
2019-05-21T15:42:19.593Z,46.07
2019-05-21T15:44:48.477Z,39.97
2019-05-21T15:47:17.375Z,34.10
2019-05-21T15:49:46.192Z,35.30
2019-05-21T15:52:15.098Z,40.80
2019-05-21T15:54:44.029Z,38.13
2019-05-21T15:57:12.848Z,42.23
2019-05-21T15:59:41.835Z,48.13
2019-05-21T16:02:10.863Z,47.50
2019-05-21T16:04:40.098Z,42.73
2019-05-21T16:07:09.134Z,36.10
2019-05-21T16:09:38.276Z,39.10
2019-05-21T16:12:07.132Z,53.77
2019-05-21T16:14:36.114Z,39.87
2019-05-21T16:17:05.108Z,42.63
2019-05-21T16:19:34.112Z,52.23
2019-05-21T16:22:02.960Z,39.13
2019-05-21T16:24:32.534Z,43.57
2019-05-21T16:27:01.792Z,57.07
2019-05-21T16:29:30.596Z,38.47
2019-05-21T16:31:59.864Z,44.40
2019-05-21T16:34:32.030Z,53.57
2019-05-21T16:37:00.997Z,55.23
2019-05-21T16:39:30.342Z,48.43
2019-05-21T16:42:02.707Z,45.30
2019-05-21T16:44:31.604Z,56.87
2019-05-21T16:47:00.640Z,47.80
2019-05-21T16:49:29.642Z,56.73
2019-05-21T16:51:58.636Z,51.73
2019-05-21T16:54:27.795Z,50.30
2019-05-21T16:56:56.702Z,57.93
2019-05-21T16:59:25.723Z,55.57
2019-05-21T17:01:54.742Z,56.20
2019-05-21T17:07:00.924Z,48.83
2019-05-21T17:09:30.629Z,56.07
2019-05-21T17:12:00.534Z,59.83
2019-05-21T17:14:29.596Z,52.43
2019-05-21T17:16:58.427Z,50.83
2019-05-21T17:19:27.878Z,49.23
2019-05-21T17:21:56.788Z,47.93
2019-05-21T17:24:28.566Z,48.37
2019-05-21T17:26:57.759Z,44.90
2019-05-21T17:29:26.674Z,60.87
2019-05-21T17:31:56.084Z,47.37
2019-05-21T17:34:25.487Z,54.70
2019-05-21T17:36:54.575Z,53.23
2019-05-21T17:41:58.483Z,53.93
2019-05-21T17:44:27.328Z,50.70
2019-05-21T17:46:56.385Z,53.37
2019-05-21T17:49:25.306Z,54.50
2019-05-21T17:51:54.136Z,62.73
2019-05-21T17:54:23.612Z,54.07
2019-05-21T17:56:52.504Z,53.57
2019-05-21T17:59:21.580Z,50.70
2019-05-21T18:01:51.479Z,55.23
2019-05-21T18:04:20.600Z,51.73
2019-05-21T18:06:49.522Z,61.93
2019-05-21T18:09:21.006Z,53.40
2019-05-21T18:11:50.064Z,46.50
2019-05-21T18:14:19.328Z,46.20
2019-05-21T18:16:50.665Z,40.33
2019-05-21T18:19:20.655Z,58.00
2019-05-21T18:21:50.145Z,43.53
2019-05-21T18:24:19.096Z,41.90
2019-05-21T18:26:48.489Z,43.13
2019-05-21T18:29:17.364Z,39.30
2019-05-21T18:31:46.424Z,43.00
2019-05-21T18:34:15.415Z,46.67
2019-05-21T18:36:44.493Z,46.57
2019-05-21T18:39:13.506Z,40.20
2019-05-21T18:41:42.312Z,49.53
2019-05-21T18:44:11.256Z,40.23
2019-05-21T18:46:44.415Z,35.57
2019-05-21T18:49:13.388Z,38.33
2019-05-21T18:51:42.831Z,37.73
2019-05-21T18:56:47.404Z,36.23
2019-05-21T18:59:16.276Z,34.40
2019-05-21T19:01:45.169Z,43.13
2019-05-21T19:04:15.664Z,37.00
2019-05-21T19:06:44.660Z,33.43
2019-05-21T19:09:13.982Z,41.23
2019-05-21T19:11:45.884Z,46.53
2019-05-21T19:14:15.492Z,36.57
2019-05-21T19:16:44.398Z,43.40
2019-05-21T19:19:18.044Z,39.23
2019-05-21T19:21:46.827Z,49.57
2019-05-21T19:24:15.777Z,33.73
2019-05-21T19:26:45.656Z,39.23
2019-05-21T19:29:14.871Z,34.60
2019-05-21T19:31:44.533Z,39.63
2019-05-21T19:34:13.587Z,33.60
2019-05-21T19:36:42.480Z,33.50
2019-05-21T19:39:12.942Z,35.40
2019-05-21T19:41:41.936Z,31.07
2019-05-21T19:44:11.040Z,43.93
2019-05-21T19:46:42.703Z,35.90
2019-05-21T19:49:12.030Z,38.47
2019-05-21T19:51:40.985Z,29.83
2019-05-21T19:54:12.127Z,28.40
2019-05-21T19:56:41.299Z,31.47
2019-05-21T19:59:10.206Z,28.17
2019-05-21T20:01:39.916Z,30.10
2019-05-21T20:04:11.484Z,28.17
2019-05-21T20:06:41.172Z,28.37
2019-05-21T20:09:14.718Z,39.37
2019-05-21T20:11:44.539Z,27.57
2019-05-21T20:14:13.451Z,25.63
2019-05-21T20:16:42.764Z,25.97
2019-05-21T20:19:13.831Z,27.93
2019-05-21T20:21:43.349Z,28.00
2019-05-21T20:24:12.559Z,25.93
2019-05-21T20:26:43.163Z,29.13
2019-05-21T20:29:12.134Z,26.97
2019-05-21T20:31:41.063Z,28.77
2019-05-21T20:34:15.928Z,23.10
2019-05-21T20:36:45.143Z,24.67
2019-05-21T20:39:19.223Z,24.43
2019-05-21T20:41:48.727Z,31.20
2019-05-21T20:44:18.527Z,27.03
2019-05-21T20:46:48.252Z,25.43
2019-05-21T20:49:17.158Z,46.03
2019-05-21T20:51:46.725Z,26.73
2019-05-21T20:54:17.850Z,27.90
2019-05-21T20:56:46.814Z,28.77
2019-05-21T20:59:15.692Z,34.63
2019-05-21T21:01:46.479Z,26.50
2019-05-21T21:04:16.053Z,30.50
2019-05-21T21:06:45.468Z,28.00
2019-05-21T21:09:15.460Z,33.27
2019-05-21T21:11:44.632Z,31.47
2019-05-21T21:16:51.353Z,31.20
2019-05-21T21:19:20.730Z,26.63
2019-05-21T21:21:49.608Z,33.70
2019-05-21T21:24:19.400Z,39.97
2019-05-21T21:26:48.704Z,47.13
2019-05-21T21:29:18.116Z,29.37
2019-05-21T21:31:47.033Z,36.27
2019-05-21T21:34:16.327Z,30.97
2019-05-21T21:36:45.859Z,36.07
2019-05-21T21:39:15.989Z,29.80
2019-05-21T21:41:45.512Z,41.67
2019-05-21T21:44:14.484Z,33.57
2019-05-21T21:49:19.387Z,32.03
2019-05-21T21:51:48.198Z,30.60
2019-05-21T21:54:17.270Z,32.63
2019-05-21T21:56:46.107Z,34.60
2019-05-21T21:59:15.171Z,37.63
2019-05-21T22:01:50.822Z,36.47
2019-05-21T22:04:27.958Z,36.53
2019-05-21T22:06:57.909Z,34.97
2019-05-21T22:09:29.615Z,38.93
2019-05-21T22:11:58.721Z,38.57
2019-05-21T22:14:28.786Z,35.70
2019-05-21T22:16:57.868Z,39.93
2019-05-21T22:19:26.835Z,38.73
2019-05-21T22:21:57.299Z,43.63
2019-05-21T22:24:27.161Z,37.90
2019-05-21T22:26:56.311Z,45.83
2019-05-21T22:29:27.083Z,40.30
2019-05-21T22:31:55.992Z,45.73
2019-05-21T22:34:25.732Z,46.30
2019-05-21T22:36:55.245Z,48.83
2019-05-21T22:39:26.329Z,42.67
2019-05-21T22:41:55.496Z,53.03
2019-05-21T22:44:24.528Z,45.50
2019-05-21T22:46:55.644Z,39.37
2019-05-21T22:49:24.606Z,40.50
2019-05-21T22:51:53.962Z,59.33
2019-05-21T22:54:24.132Z,53.40
2019-05-21T22:56:53.072Z,46.70
2019-05-21T22:59:22.244Z,49.30
2019-05-21T23:01:52.752Z,44.93
2019-05-21T23:04:21.638Z,52.60
2019-05-21T23:06:51.139Z,49.33
2019-05-21T23:09:20.402Z,43.30
2019-05-21T23:11:49.377Z,47.90
2019-05-21T23:14:18.275Z,42.50
2019-05-21T23:16:47.158Z,43.25
2019-05-21T23:19:17.946Z,42.63
2019-05-21T23:21:46.983Z,50.17
2019-05-21T23:24:21.220Z,44.13
2019-05-21T23:26:51.386Z,43.13
2019-05-21T23:29:20.508Z,44.77
2019-05-21T23:31:49.829Z,40.47
2019-05-21T23:34:20.263Z,41.13
2019-05-21T23:36:51.212Z,40.50
2019-05-21T23:39:23.728Z,39.27
2019-05-21T23:41:52.615Z,37.80
2019-05-21T23:44:21.800Z,36.07
2019-05-21T23:46:51.068Z,39.77
2019-05-21T23:49:19.995Z,33.43
2019-05-21T23:54:31.610Z,34.23
2019-05-21T23:57:03.242Z,41.27
2019-05-21T23:59:32.405Z,36.20
